Sea Bunny — MEHV4 — position and weather

sailwx.info

Track history (hours):
 
Tides and Currents Weather Stations Pressure Air Temp Water Temp Dewpoint Dewpoint Depression Visibility Wind Speed Wind Dir Waves Ship Positions

Sea Bunny

Last reported at 2017-Aug-20 09:50 UTC. Time now 2017-Sep-23 14:56 UTC.
Position N 50°36' W 001°54'.
Warning: this ship's position is 34 days out of date.

Length 13 m.

Type: Sailing vessel. MMSI: 235001550.

Date/timePositionNaut miles runAvg speedWind from/ knotsBaromVisibWave heightAir tempDewpointWater temp
2017-Aug-20 09:50N 50°36' W 001°54'2 4.7
2017-Aug-20 09:30N 50°37' W 001°54'2 4.5
2017-Aug-20 08:59N 50°40' W 001°55'3 0.2
2017-Aug-19 14:38N 50°42' W 001°58'3 4.2
2017-Aug-19 14:00N 50°40' W 001°56'1 2.2
2017-Aug-19 13:30N 50°41' W 001°56'3 5.0
2017-Aug-19 13:00N 50°40' W 001°53'2 3.8
2017-Aug-19 12:30N 50°39' W 001°50'2 3.7
2017-Aug-19 11:59N 50°38' W 001°47'1 0.1
2017-Aug-18 11:43N 50°38' W 001°49'1 5.7
2017-Aug-18 11:28N 50°38' W 001°51'3 5.7
2017-Aug-18 11:00N 50°39' W 001°55'1 0.3
2017-Aug-18 09:07N 50°39' W 001°56'0 0.0
2017-Aug-18 07:55N 50°39' W 001°56'0 0.0
2017-Aug-18 07:16N 50°39' W 001°56'0 0.0
2017-Aug-18 04:25N 50°39' W 001°56'0 0.0
2017-Aug-17 21:10N 50°39' W 001°56'0 0.0
2017-Aug-17 18:19N 50°39' W 001°56'0 0.0
2017-Aug-17 17:52N 50°39' W 001°56'0 0.0
2017-Aug-17 17:29N 50°39' W 001°56'1 3.1
2017-Aug-17 17:00N 50°38' W 001°55'  
Track history (hours):
 
Tides and Currents Weather Stations Pressure Air Temp Water Temp Dewpoint Dewpoint Depression Visibility Wind Speed Wind Dir Waves Ship Positions

Sea Bunny

Last reported at 2017-Aug-20 09:50 UTC. Time now 2017-Sep-23 14:56 UTC.
Position N 50°36' W 001°54'.
Warning: this ship's position is 34 days out of date.

Length 13 m.

Type: Sailing vessel. MMSI: 235001550.

Date/timePositionNaut miles runAvg speedWind from/ knotsBaromVisibWave heightAir tempDewpointWater temp
2017-Aug-20 09:50N 50°36' W 001°54'2 4.7
2017-Aug-20 09:30N 50°37' W 001°54'2 4.5
2017-Aug-20 08:59N 50°40' W 001°55'3 0.2
2017-Aug-19 14:38N 50°42' W 001°58'3 4.2
2017-Aug-19 14:00N 50°40' W 001°56'1 2.2
2017-Aug-19 13:30N 50°41' W 001°56'3 5.0
2017-Aug-19 13:00N 50°40' W 001°53'2 3.8
2017-Aug-19 12:30N 50°39' W 001°50'2 3.7
2017-Aug-19 11:59N 50°38' W 001°47'1 0.1
2017-Aug-18 11:43N 50°38' W 001°49'1 5.7
2017-Aug-18 11:28N 50°38' W 001°51'3 5.7
2017-Aug-18 11:00N 50°39' W 001°55'1 0.3
2017-Aug-18 09:07N 50°39' W 001°56'0 0.0
2017-Aug-18 07:55N 50°39' W 001°56'0 0.0
2017-Aug-18 07:16N 50°39' W 001°56'0 0.0
2017-Aug-18 04:25N 50°39' W 001°56'0 0.0
2017-Aug-17 21:10N 50°39' W 001°56'0 0.0
2017-Aug-17 18:19N 50°39' W 001°56'0 0.0
2017-Aug-17 17:52N 50°39' W 001°56'0 0.0
2017-Aug-17 17:29N 50°39' W 001°56'1 3.1
2017-Aug-17 17:00N 50°38' W 001°55'  

Dump ship's entire track history